Time;durP1;ratioP1;P1;durP2;ratioP2;P2;SDS_P1;SDS_P2;PMS_P1;PMS_P2;Temp;Humidity;BMP_temperature;BMP_pressure;BME280_temperature;BME280_humidity;BME280_pressure;Samples;Min_cycle;Max_cycle;Signal;HPM_P1;HPM_P2
2022/04/04 00:01:56;;;;;;;;;15.75;14.00;;;;;13.08;35.68;98465.78;5036620;27;102643;-54
2022/04/04 00:04:23;;;;;;;;;12.75;12.00;;;;;13.09;35.63;98466.59;5032416;27;103487;-54
2022/04/04 00:06:50;;;;;;;;;17.50;14.50;;;;;13.07;35.49;98464.09;5039526;27;102467;-54
2022/04/04 00:09:17;;;;;;;;;15.25;13.00;;;;;13.06;35.25;98465.16;5032426;27;104198;-53
2022/04/04 00:11:44;;;;;;;;;13.50;13.50;;;;;13.06;35.68;98454.28;5040696;27;102457;-53
2022/04/04 00:14:11;;;;;;;;;15.50;13.50;;;;;13.06;35.45;98462.44;5045569;27;102405;-53
2022/04/04 00:16:38;;;;;;;;;15.75;13.00;;;;;13.04;35.94;98450.16;5038367;27;103851;-54
2022/04/04 00:19:05;;;;;;;;;15.00;12.50;;;;;13.04;35.25;98459.13;5036769;27;104509;-53
2022/04/04 00:21:32;;;;;;;;;16.75;12.00;;;;;13.04;35.20;98456.41;5040588;27;102787;-53
2022/04/04 00:23:59;;;;;;;;;13.00;12.50;;;;;13.03;35.81;98460.16;5040100;27;102602;-54
2022/04/04 00:26:26;;;;;;;;;14.25;13.00;;;;;13.02;35.75;98455.78;5043990;27;102652;-54
2022/04/04 00:28:53;;;;;;;;;14.00;12.00;;;;;13.03;35.24;98453.91;5032700;27;104011;-53
2022/04/04 00:31:20;;;;;;;;;15.75;11.75;;;;;13.02;35.78;98454.94;5036048;27;102052;-54
2022/04/04 00:33:48;;;;;;;;;14.25;11.50;;;;;13.00;34.83;98466.03;5039776;27;102521;-53
2022/04/04 00:36:15;;;;;;;;;15.00;12.00;;;;;13.00;35.83;98460.63;5038735;27;102565;-53
2022/04/04 00:38:42;;;;;;;;;14.50;13.00;;;;;13.00;35.16;98460.63;5036836;27;103721;-53
2022/04/04 00:41:10;;;;;;;;;12.75;11.00;;;;;12.98;35.81;98463.53;5033151;27;102629;-54
2022/04/04 00:43:37;;;;;;;;;14.50;13.50;;;;;12.98;35.59;98457.28;5038295;27;102456;-53
2022/04/04 00:46:04;;;;;;;;;15.00;9.25;;;;;12.99;35.73;98458.94;5026940;27;102240;-53
2022/04/04 00:48:32;;;;;;;;;15.00;12.50;;;;;13.00;35.86;98455.19;5034918;27;104191;-54
2022/04/04 00:51:00;;;;;;;;;10.25;9.75;;;;;13.00;35.07;98454.34;5033746;27;102497;-54
2022/04/04 00:53:27;;;;;;;;;12.00;9.75;;;;;13.00;34.99;98454.34;5030142;27;102603;-53
2022/04/04 00:55:54;;;;;;;;;14.75;11.50;;;;;12.99;35.15;98448.09;5036725;27;102691;-53
2022/04/04 00:58:21;;;;;;;;;14.00;12.25;;;;;12.98;35.88;98449.13;5041578;27;103966;-54
2022/04/04 01:00:48;;;;;;;;;14.25;12.75;;;;;12.97;35.12;98455.59;5041057;27;102551;-53
2022/04/04 01:03:16;;;;;;;;;12.75;11.25;;;;;12.97;34.94;98445.59;5040043;27;104553;-53
2022/04/04 01:05:44;;;;;;;;;11.50;11.50;;;;;12.95;35.84;98439.56;5038380;27;104943;-53
2022/04/04 01:08:14;;;;;;;;;13.00;11.25;;;;;12.95;35.92;98445.00;5038303;27;104259;-53
2022/04/04 01:10:42;;;;;;;;;12.50;9.00;;;;;12.96;35.08;98443.13;5037635;27;102700;-54
2022/04/04 01:13:10;;;;;;;;;11.25;9.75;;;;;12.95;35.35;98441.44;5045483;27;102154;-54
2022/04/04 01:15:37;;;;;;;;;12.00;11.75;;;;;12.93;34.81;98441.66;5034245;27;102918;-54
2022/04/04 01:18:05;;;;;;;;;12.50;12.00;;;;;12.93;34.78;98438.09;5029704;27;104556;-53
2022/04/04 01:20:32;;;;;;;;;13.50;12.25;;;;;12.93;35.60;98443.53;5035698;27;102438;-53
2022/04/04 01:22:59;;;;;;;;;15.50;13.00;;;;;12.92;35.93;98436.47;5039278;27;102534;-53
2022/04/04 01:25:27;;;;;;;;;12.00;10.25;;;;;12.90;35.85;98433.13;5034375;27;103065;-54
2022/04/04 01:27:55;;;;;;;;;11.50;10.25;;;;;12.90;35.75;98435.84;5042026;27;104067;-53
2022/04/04 01:30:23;;;;;;;;;13.00;12.00;;;;;12.90;34.94;98433.13;5036597;27;103336;-53
2022/04/04 01:32:50;;;;;;;;;11.00;10.25;;;;;12.88;35.76;98433.34;5036875;27;102231;-53
2022/04/04 01:35:17;;;;;;;;;13.50;12.00;;;;;12.88;35.18;98438.75;5037342;27;102116;-54
2022/04/04 01:37:45;;;;;;;;;12.75;10.25;;;;;12.90;35.11;98424.97;5036238;27;105724;-54
2022/04/04 01:40:12;;;;;;;;;12.00;12.00;;;;;12.91;35.58;98426.66;5028317;27;102844;-53
2022/04/04 01:42:39;;;;;;;;;16.25;10.00;;;;;12.90;34.84;98428.53;5045651;27;104532;-54
2022/04/04 01:45:07;;;;;;;;;9.75;8.00;;;;;12.92;34.87;98431.03;5036503;27;102466;-53
2022/04/04 01:47:35;;;;;;;;;8.25;8.25;;;;;12.91;35.68;98423.94;5039307;27;103888;-54
2022/04/04 01:50:03;;;;;;;;;14.00;9.50;;;;;12.90;35.68;98422.28;5038558;27;104765;-54
2022/04/04 01:52:30;;;;;;;;;14.00;11.50;;;;;12.89;34.88;98412.47;5039491;27;102471;-54
2022/04/04 01:54:57;;;;;;;;;12.00;9.00;;;;;12.89;35.71;98417.88;5032353;27;102815;-53
2022/04/04 01:57:24;;;;;;;;;8.50;8.50;;;;;12.88;35.20;98406.19;5035861;27;104156;-54
2022/04/04 01:59:51;;;;;;;;;13.00;8.75;;;;;12.89;34.92;98407.03;5044645;27;104342;-53
2022/04/04 02:02:18;;;;;;;;;13.25;11.00;;;;;12.88;35.71;98411.63;5039643;27;102765;-53
2022/04/04 02:04:45;;;;;;;;;9.25;8.00;;;;;12.88;35.15;98413.50;5046856;27;102638;-53
2022/04/04 02:07:12;;;;;;;;;12.25;9.00;;;;;12.86;34.78;98405.59;5031105;27;104175;-53
2022/04/04 02:09:39;;;;;;;;;12.75;9.00;;;;;12.90;35.83;98414.97;5036845;27;102708;-54
2022/04/04 02:12:06;;;;;;;;;9.00;7.75;;;;;12.90;35.40;98400.56;5041720;27;104064;-53
2022/04/04 02:14:34;;;;;;;;;10.50;9.50;;;;;12.94;34.79;98413.47;5046496;27;102339;-54
2022/04/04 02:17:01;;;;;;;;;9.00;8.00;;;;;12.96;34.70;98402.41;5042322;27;104182;-53
2022/04/04 02:19:28;;;;;;;;;8.75;8.75;;;;;12.97;34.84;98402.16;5041281;27;103095;-53
2022/04/04 02:21:55;;;;;;;;;13.00;8.50;;;;;13.01;35.60;98407.16;5033288;27;104295;-54
2022/04/04 02:24:22;;;;;;;;;9.75;7.00;;;;;13.05;35.63;98397.53;5036992;27;103036;-54
2022/04/04 02:26:50;;;;;;;;;8.75;7.00;;;;;13.07;35.62;98388.09;5047091;27;104055;-54
2022/04/04 02:29:17;;;;;;;;;10.50;10.25;;;;;13.10;35.26;98389.56;5033638;27;102593;-53
2022/04/04 02:31:44;;;;;;;;;9.00;8.00;;;;;13.13;34.84;98383.69;5042572;27;102887;-53
2022/04/04 02:34:11;;;;;;;;;7.00;5.75;;;;;13.15;35.60;98384.31;5035955;27;102122;-53
2022/04/04 02:36:38;;;;;;;;;12.00;9.00;;;;;13.17;35.12;98385.75;5038018;27;105842;-53
2022/04/04 02:39:10;;;;;;;;;8.00;8.00;;;;;13.19;34.46;98383.63;5037155;27;102311;-54
2022/04/04 02:41:37;;;;;;;;;8.50;8.00;;;;;13.19;34.59;98375.47;5041713;27;102724;-54
2022/04/04 02:44:04;;;;;;;;;7.25;7.25;;;;;13.24;34.94;98375.66;5039089;27;102220;-53
2022/04/04 02:46:32;;;;;;;;;10.00;8.25;;;;;13.26;34.86;98373.56;5037546;27;104071;-53
2022/04/04 02:48:59;;;;;;;;;7.25;7.00;;;;;13.27;34.50;98369.78;5034989;27;102417;-53
2022/04/04 02:51:26;;;;;;;;;12.00;8.25;;;;;13.29;35.39;98370.38;5037984;27;102552;-54
2022/04/04 02:53:53;;;;;;;;;9.25;7.50;;;;;13.30;34.61;98366.63;5043667;27;102411;-54
2022/04/04 02:56:29;;;;;;;;;9.50;8.00;;;;;13.26;34.59;98354.53;5033451;27;104142;-54
2022/04/04 02:59:00;;;;;;;;;7.50;6.75;;;;;13.33;35.18;98374.31;5035928;27;102503;-53
2022/04/04 03:01:28;;;;;;;;;9.00;8.00;;;;;13.34;34.19;98380.56;5034041;27;102636;-54
2022/04/04 03:03:55;;;;;;;;;9.00;7.50;;;;;13.35;34.28;98376.81;5040459;27;102499;-54
2022/04/04 03:06:22;;;;;;;;;9.50;8.00;;;;;13.35;34.78;98372.22;5033917;27;104183;-53
2022/04/04 03:08:49;;;;;;;;;9.00;8.00;;;;;13.36;34.43;98373.88;5035798;27;102064;-54
2022/04/04 03:11:16;;;;;;;;;8.25;7.00;;;;;13.36;34.80;98383.91;5035878;27;103377;-54
2022/04/04 03:13:43;;;;;;;;;7.50;6.00;;;;;13.36;35.08;98379.31;5035999;27;102740;-53
2022/04/04 03:16:10;;;;;;;;;9.50;7.75;;;;;13.35;35.28;98383.06;5028348;27;104105;-54
2022/04/04 03:18:37;;;;;;;;;8.75;7.75;;;;;13.34;35.18;98381.41;5044475;27;102213;-53
2022/04/04 03:21:04;;;;;;;;;10.25;9.00;;;;;13.34;34.40;98375.13;5032600;27;102576;-53
2022/04/04 03:23:32;;;;;;;;;9.25;8.00;;;;;13.35;34.96;98376.81;5045560;27;103484;-53
2022/04/04 03:25:59;;;;;;;;;8.25;7.50;;;;;13.35;34.08;98376.81;5034236;27;104267;-53
2022/04/04 03:28:26;;;;;;;;;8.00;7.50;;;;;13.35;35.14;98376.81;5044155;27;102428;-53
2022/04/04 03:30:53;;;;;;;;;8.75;7.00;;;;;13.36;35.05;98376.59;5035297;27;102129;-53
2022/04/04 03:33:21;;;;;;;;;7.25;6.25;;;;;13.36;34.47;98382.03;5034776;27;104164;-53
2022/04/04 03:35:49;;;;;;;;;6.75;6.50;;;;;13.36;34.46;98379.31;5042381;27;104247;-54
2022/04/04 03:38:17;;;;;;;;;6.50;6.50;;;;;13.36;34.66;98389.34;5035486;27;102447;-54
2022/04/04 03:40:44;;;;;;;;;9.00;7.50;;;;;13.37;34.67;98380.94;5035233;27;102860;-53
2022/04/04 03:43:12;;;;;;;;;7.00;7.00;;;;;13.36;34.17;98390.16;5035797;27;102478;-53
2022/04/04 03:45:39;;;;;;;;;6.25;5.25;;;;;13.37;34.18;98386.38;5039576;27;104119;-54
2022/04/04 03:48:06;;;;;;;;;6.00;6.00;;;;;13.35;34.77;98388.50;5030043;27;102574;-53
2022/04/04 03:50:34;;;;;;;;;8.00;6.50;;;;;13.35;34.87;98382.22;5038535;27;104398;-53
2022/04/04 03:53:01;;;;;;;;;8.00;6.75;;;;;13.35;35.00;98383.06;5036444;27;102473;-54
2022/04/04 03:55:35;;;;;;;;;7.00;6.00;;;;;13.35;35.10;98387.66;5033272;27;104161;-54
2022/04/04 03:58:02;;;;;;;;;7.00;7.00;;;;;13.34;34.83;98377.84;5045532;27;102514;-54
2022/04/04 04:00:29;;;;;;;;;8.75;6.25;;;;;13.32;34.78;98380.81;5046725;27;102123;-54
2022/04/04 04:02:57;;;;;;;;;8.25;6.50;;;;;13.27;34.25;98371.66;5040517;27;102536;-54
2022/04/04 04:05:24;;;;;;;;;9.00;6.00;;;;;13.30;34.82;98385.63;5044236;27;104144;-54
2022/04/04 04:07:52;;;;;;;;;8.00;6.50;;;;;13.28;34.39;98381.47;5040941;27;102347;-53
2022/04/04 04:10:19;;;;;;;;;7.75;6.00;;;;;13.25;34.13;98377.31;5035834;27;102935;-54
2022/04/04 04:12:46;;;;;;;;;6.50;6.00;;;;;13.17;34.74;98361.31;5037376;27;102508;-53
2022/04/04 04:15:21;;;;;;;;;4.50;4.00;;;;;13.21;34.98;98373.38;5031364;27;103772;-54
2022/04/04 04:17:52;;;;;;;;;7.00;5.75;;;;;13.21;33.88;98381.53;5037230;27;102558;-53
2022/04/04 04:20:20;;;;;;;;;6.75;6.00;;;;;13.21;34.25;98376.09;5040424;27;103253;-53
2022/04/04 04:22:52;;;;;;;;;5.00;4.50;;;;;13.21;34.12;98373.38;5055612;27;102922;-54
2022/04/04 04:25:23;;;;;;;;;5.75;4.50;;;;;13.21;34.64;98372.56;5031076;27;104155;-54
2022/04/04 04:27:50;;;;;;;;;6.00;6.00;;;;;13.18;34.30;98373.84;5046626;27;104109;-53
2022/04/04 04:30:17;;;;;;;;;7.00;6.25;;;;;13.18;34.77;98371.13;5045706;27;102164;-53
2022/04/04 04:32:48;;;;;;;;;7.00;6.00;;;;;13.17;34.94;98372.16;5056822;27;102439;-54
2022/04/04 04:35:15;;;;;;;;;7.25;7.00;;;;;13.15;34.60;98366.13;5047490;27;103972;-53
2022/04/04 04:37:43;;;;;;;;;7.00;7.00;;;;;13.16;34.63;98377.81;5036030;27;102086;-53
2022/04/04 04:40:10;;;;;;;;;9.25;7.50;;;;;13.14;34.08;98378.06;5044453;27;102087;-53
2022/04/04 04:42:37;;;;;;;;;6.50;5.75;;;;;13.07;34.95;98366.38;5039323;27;103888;-53
2022/04/04 04:45:05;;;;;;;;;6.75;6.75;;;;;13.12;34.28;98371.16;5038025;27;104189;-53
2022/04/04 04:47:32;;;;;;;;;7.50;7.50;;;;;13.11;35.06;98367.63;5039556;27;102370;-53
2022/04/04 04:50:00;;;;;;;;;5.00;4.00;;;;;13.12;36.42;98377.44;5044198;27;102465;-54
2022/04/04 04:52:27;;;;;;;;;6.00;6.00;;;;;13.12;36.22;98377.44;5035421;27;102172;-53
2022/04/04 04:54:54;;;;;;;;;6.75;6.00;;;;;13.16;35.49;98384.06;5034138;27;104205;-54
2022/04/04 04:57:22;;;;;;;;;5.75;5.25;;;;;13.15;35.39;98382.41;5042568;27;102357;-54
2022/04/04 04:59:49;;;;;;;;;6.00;4.75;;;;;13.13;35.35;98381.81;5041738;27;103352;-54
2022/04/04 05:02:18;;;;;;;;;4.25;4.00;;;;;13.12;35.72;98382.88;5039787;27;102134;-53
2022/04/04 05:04:45;;;;;;;;;5.00;4.25;;;;;13.13;34.84;98384.53;5043049;27;105003;-53
2022/04/04 05:07:13;;;;;;;;;5.75;5.00;;;;;13.13;35.14;98376.38;5035671;27;102878;-53
2022/04/04 05:09:40;;;;;;;;;8.50;7.00;;;;;13.14;34.81;98374.50;5049209;27;102146;-54
2022/04/04 05:12:07;;;;;;;;;6.00;6.00;;;;;13.14;35.59;98379.94;5034006;27;103615;-54
2022/04/04 05:14:36;;;;;;;;;6.25;5.25;;;;;13.12;35.35;98376.59;5032635;27;103912;-54
2022/04/04 05:17:04;;;;;;;;;6.00;5.25;;;;;13.11;35.66;98383.91;5036650;27;102044;-54
2022/04/04 05:19:31;;;;;;;;;7.50;6.50;;;;;13.11;35.20;98381.19;5046682;27;102155;-54
2022/04/04 05:21:59;;;;;;;;;9.25;7.00;;;;;13.10;34.64;98378.69;5046628;27;103062;-54
2022/04/04 05:24:29;;;;;;;;;6.25;5.75;;;;;13.09;35.25;98371.59;5049062;27;104111;-54
2022/04/04 05:26:57;;;;;;;;;6.00;5.00;;;;;13.09;34.97;98375.16;5041745;27;102272;-54
2022/04/04 05:29:26;;;;;;;;;5.00;5.00;;;;;13.08;35.08;98376.19;5056259;27;102533;-54
2022/04/04 05:31:56;;;;;;;;;7.00;5.50;;;;;13.08;34.51;98381.63;5058693;27;102128;-54
2022/04/04 05:34:27;;;;;;;;;7.00;6.00;;;;;13.07;34.68;98370.97;5056567;27;104043;-53
2022/04/04 05:36:58;;;;;;;;;6.50;6.00;;;;;13.06;34.83;98367.44;5045803;27;103606;-54
2022/04/04 05:39:25;;;;;;;;;6.00;5.50;;;;;13.07;34.41;98371.81;5052761;27;102086;-54
2022/04/04 05:44:34;;;;;;;;;8.00;6.50;;;;;13.00;35.41;98354.75;5077929;22;103724;-82
2022/04/04 05:47:02;;;;;;;;;6.25;5.00;;;;;13.05;35.19;98371.22;4921655;28;103337;-82
2022/04/04 05:49:29;;;;;;;;;7.25;6.00;;;;;13.00;35.02;98360.19;4932161;28;102221;-82
2022/04/04 05:51:56;;;;;;;;;5.75;4.50;;;;;13.02;34.53;98370.81;4919740;28;102468;-82
2022/04/04 05:54:28;;;;;;;;;5.75;4.50;;;;;13.00;34.53;98362.91;4907115;28;105852;-82
2022/04/04 05:56:56;;;;;;;;;6.75;6.00;;;;;13.02;34.69;98368.94;4925611;28;102315;-82
2022/04/04 05:59:26;;;;;;;;;5.50;4.50;;;;;12.98;35.06;98371.25;4892519;28;102584;-82
2022/04/04 06:01:55;;;;;;;;;6.25;5.50;;;;;13.02;35.16;98366.22;4913470;28;102710;-82
2022/04/04 06:04:22;;;;;;;;;7.00;6.75;;;;;13.04;35.17;98374.97;4912001;28;105426;-82
2022/04/04 06:06:49;;;;;;;;;7.00;6.00;;;;;13.04;34.82;98376.84;4929470;28;103298;-82
2022/04/04 06:09:16;;;;;;;;;4.25;4.25;;;;;13.05;35.16;98378.53;4905194;28;102326;-82
2022/04/04 06:11:47;;;;;;;;;6.00;4.50;;;;;13.02;34.64;98374.34;4912650;28;102405;-82
2022/04/04 06:14:14;;;;;;;;;5.50;4.75;;;;;13.02;35.20;98377.06;4908488;28;104067;-82
2022/04/04 06:16:41;;;;;;;;;7.00;5.50;;;;;13.02;35.21;98382.50;4921806;28;102163;-82
2022/04/04 06:19:14;;;;;;;;;8.00;5.25;;;;;13.01;34.29;98380.84;4940459;28;102382;-82
2022/04/04 06:21:42;;;;;;;;;7.00;4.00;;;;;12.98;34.28;98368.53;4912506;28;103467;-82
2022/04/04 06:24:10;;;;;;;;;6.25;5.25;;;;;12.96;35.19;98373.38;4936591;28;105801;-82
2022/04/04 06:26:39;;;;;;;;;5.00;4.25;;;;;12.94;34.23;98364.63;4927827;28;102689;-82
2022/04/04 06:29:09;;;;;;;;;5.00;5.00;;;;;12.96;34.89;98357.09;4925579;28;102849;-82
2022/04/04 06:31:37;;;;;;;;;5.75;5.25;;;;;13.00;34.43;98365.63;4900156;28;102231;-82
2022/04/04 06:34:04;;;;;;;;;6.25;6.00;;;;;12.99;34.93;98358.53;4912853;28;104583;-82
2022/04/04 06:36:34;;;;;;;;;1.50;1.50;;;;;12.96;34.21;98351.66;4912623;28;102354;-82
2022/04/04 06:39:01;;;;;;;;;4.25;4.25;;;;;12.99;34.43;98361.25;4908105;28;102665;-82
2022/04/04 06:41:30;;;;;;;;;5.75;5.00;;;;;12.98;34.79;98367.72;4933020;28;102454;-82
2022/04/04 06:43:58;;;;;;;;;9.00;5.00;;;;;12.99;34.82;98363.94;4936754;28;103291;-82
2022/04/04 06:46:27;;;;;;;;;6.75;5.00;;;;;12.96;35.10;98356.25;4934135;28;103817;-82
2022/04/04 06:48:54;;;;;;;;;5.25;4.75;;;;;12.95;35.03;98349.16;4889488;28;102429;-82
2022/04/04 06:51:21;;;;;;;;;4.50;4.00;;;;;13.02;34.43;98366.22;4929635;28;102608;-82
2022/04/04 06:53:48;;;;;;;;;4.50;4.50;;;;;13.04;34.63;98374.16;4933083;28;103173;-82
2022/04/04 06:56:16;;;;;;;;;5.25;4.25;;;;;13.02;34.77;98359.94;4939260;28;102978;-82
2022/04/04 06:58:43;;;;;;;;;4.00;3.00;;;;;13.02;34.75;98360.78;4908745;28;103375;-82
2022/04/04 07:01:10;;;;;;;;;5.00;5.00;;;;;13.05;34.96;98371.22;4936817;28;102487;-82
2022/04/04 07:03:37;;;;;;;;;6.25;5.75;;;;;13.02;34.71;98355.34;4922164;28;103960;-82
2022/04/04 07:06:06;;;;;;;;;4.25;3.50;;;;;13.05;34.17;98363.06;4938212;28;102139;-82
2022/04/04 07:08:33;;;;;;;;;6.50;5.75;;;;;13.08;34.20;98354.47;4939521;28;102459;-82
2022/04/04 07:11:02;;;;;;;;;4.00;3.25;;;;;13.06;34.55;98347.63;4935230;28;103237;-82
2022/04/04 07:13:31;;;;;;;;;6.00;4.50;;;;;13.08;34.78;98349.03;4926017;28;104120;-82
2022/04/04 07:15:58;;;;;;;;;5.50;5.50;;;;;13.06;34.55;98351.13;4900905;28;102542;-82
2022/04/04 07:18:34;;;;;;;;;6.50;5.25;;;;;13.07;34.36;98350.09;4924471;28;102192;-82
2022/04/04 07:21:01;;;;;;;;;5.50;5.50;;;;;13.05;34.91;98348.66;4934986;28;103194;-82
2022/04/04 07:23:31;;;;;;;;;5.50;4.00;;;;;13.03;34.24;98345.34;4935044;28;103469;-82
2022/04/04 07:26:03;;;;;;;;;4.00;3.75;;;;;13.04;34.59;98355.97;4945725;28;102290;-82
2022/04/04 07:28:33;;;;;;;;;6.50;3.75;;;;;13.07;34.02;98360.94;4925515;28;103475;-82
2022/04/04 07:31:06;;;;;;;;;3.75;3.50;;;;;13.00;34.93;98348.50;4941322;28;102457;-82
2022/04/04 07:33:33;;;;;;;;;4.25;4.00;;;;;13.07;34.47;98358.22;4936629;28;103145;-82
2022/04/04 07:36:01;;;;;;;;;4.50;4.25;;;;;13.05;34.74;98354.09;4924248;28;102622;-82
2022/04/04 07:38:29;;;;;;;;;5.00;4.00;;;;;13.03;34.11;98357.03;4933369;28;102302;-82
2022/04/04 07:40:56;;;;;;;;;6.00;5.75;;;;;13.08;34.69;98356.34;4892493;28;102185;-82
2022/04/04 07:43:23;;;;;;;;;4.00;4.00;;;;;13.05;34.33;98357.66;4937882;28;103847;-82
2022/04/04 07:45:50;;;;;;;;;5.75;4.00;;;;;13.08;34.67;98361.78;4929313;28;102699;-82
2022/04/04 07:48:17;;;;;;;;;7.25;3.75;;;;;13.07;34.64;98354.69;4918455;28;103295;-82
2022/04/04 07:50:45;;;;;;;;;4.00;4.00;;;;;13.10;34.33;98359.69;4903496;28;102587;-82
2022/04/04 07:53:15;;;;;;;;;5.25;4.00;;;;;13.08;34.39;98368.03;4934820;28;103145;-82
2022/04/04 07:55:45;;;;;;;;;4.75;4.75;;;;;13.11;34.78;98374.94;4919992;28;102556;-82
2022/04/04 07:58:15;;;;;;;;;4.25;3.25;;;;;13.09;34.35;98361.56;4936268;28;102429;-82
2022/04/04 08:00:43;;;;;;;;;4.00;3.00;;;;;13.08;34.49;98359.91;4897857;28;103157;-82
2022/04/04 08:03:10;;;;;;;;;4.25;4.25;;;;;13.05;34.55;98359.53;4911775;28;102960;-82
2022/04/04 08:05:37;;;;;;;;;4.00;3.75;;;;;13.06;34.80;98358.47;4892027;28;102680;-82
2022/04/04 08:08:05;;;;;;;;;5.00;4.75;;;;;13.04;34.35;98353.25;4934886;28;102411;-82
2022/04/04 08:10:32;;;;;;;;;4.75;3.75;;;;;13.04;34.01;98347.84;4937525;28;102236;-82
2022/04/04 08:13:00;;;;;;;;;4.00;4.00;;;;;13.03;35.00;98357.03;4933035;28;104037;-82
2022/04/04 08:15:27;;;;;;;;;3.00;3.00;;;;;13.00;34.61;98345.78;4940931;28;102591;-82
2022/04/04 08:17:56;;;;;;;;;3.50;3.00;;;;;13.00;34.24;98351.22;4930438;28;102489;-82
2022/04/04 08:20:23;;;;;;;;;3.00;3.00;;;;;13.00;34.03;98346.63;4916419;28;102510;-82
2022/04/04 08:22:50;;;;;;;;;5.00;4.00;;;;;13.03;34.52;98356.19;4938168;28;104125;-83
2022/04/04 08:25:17;;;;;;;;;5.25;4.00;;;;;13.08;34.47;98350.94;4917126;28;102620;-83
2022/04/04 08:27:44;;;;;;;;;6.00;3.50;;;;;13.08;34.65;98349.03;4933775;28;102249;-83
2022/04/04 08:30:13;;;;;;;;;3.00;3.00;;;;;13.09;34.29;98350.72;4939464;28;102315;-83
2022/04/04 08:32:41;;;;;;;;;4.50;3.75;;;;;13.08;34.13;98348.22;4935010;28;104101;-83
2022/04/04 08:35:09;;;;;;;;;4.00;4.00;;;;;13.09;34.75;98339.84;4917711;28;102353;-83
2022/04/04 08:37:37;;;;;;;;;3.25;3.00;;;;;13.09;34.66;98334.44;4938492;28;102454;-83
2022/04/04 08:40:05;;;;;;;;;4.50;3.25;;;;;13.10;34.60;98329.84;4927817;28;102566;-82
2022/04/04 08:42:32;;;;;;;;;4.25;4.00;;;;;13.12;34.31;98325.84;4914444;28;104296;-82
2022/04/04 08:45:00;;;;;;;;;3.50;2.50;;;;;13.14;33.65;98328.38;4918071;28;102241;-82
2022/04/04 08:47:29;;;;;;;;;5.50;4.00;;;;;13.13;33.82;98324.81;4918634;28;103052;-83
2022/04/04 08:49:56;;;;;;;;;3.00;3.00;;;;;13.15;34.60;98327.31;4939719;28;102490;-83
2022/04/04 08:52:24;;;;;;;;;4.00;4.00;;;;;13.14;34.18;98321.06;4939733;28;104109;-83
2022/04/04 08:54:51;;;;;;;;;4.50;3.00;;;;;13.14;34.20;98307.47;4920043;28;102469;-82
2022/04/04 08:57:18;;;;;;;;;3.00;3.00;;;;;13.15;34.65;98311.81;4938876;28;102558;-82
2022/04/04 08:59:45;;;;;;;;;4.75;2.75;;;;;13.15;34.35;98311.81;4936287;28;102358;-82
2022/04/04 09:02:13;;;;;;;;;3.75;3.00;;;;;13.16;33.96;98309.94;4922119;28;105610;-82
2022/04/04 09:04:40;;;;;;;;;2.00;2.00;;;;;13.17;34.35;98309.72;4899660;28;102540;-82
2022/04/04 09:07:13;;;;;;;;;5.00;4.00;;;;;13.20;34.57;98306.56;4895205;28;102297;-82
2022/04/04 09:09:49;;;;;;;;;3.75;3.00;;;;;13.22;34.19;98290.06;4933931;28;102645;-82
2022/04/04 09:12:22;;;;;;;;;4.25;4.00;;;;;13.20;33.62;98292.97;4916252;28;104220;-82
2022/04/04 09:14:51;;;;;;;;;3.00;2.25;;;;;13.20;34.31;98282.13;4917731;28;102448;-82
2022/04/04 09:17:21;;;;;;;;;3.00;3.00;;;;;13.21;34.12;98281.06;4899221;28;102189;-82
2022/04/04 09:19:48;;;;;;;;;3.00;3.00;;;;;13.22;34.12;98274.59;4915061;28;102208;-82
2022/04/04 09:22:18;;;;;;;;;5.25;3.75;;;;;13.23;33.55;98268.13;4907966;28;104211;-82
2022/04/04 09:24:59;;;;;;;;;3.75;3.00;;;;;13.28;34.46;98272.88;4893003;28;102572;-82
2022/04/04 09:27:36;;;;;;;;;3.00;2.75;;;;;13.28;34.08;98262.81;4937895;28;102070;-82
2022/04/04 09:30:07;;;;;;;;;3.25;3.25;;;;;13.30;33.77;98254.44;4925580;28;102284;-82
2022/04/04 09:32:40;;;;;;;;;2.75;2.00;;;;;13.28;34.16;98251.94;4891062;28;103300;-82
2022/04/04 09:35:15;;;;;;;;;3.25;2.50;;;;;13.29;34.37;98248.19;4923810;28;102455;-82
2022/04/04 09:37:48;;;;;;;;;4.00;3.00;;;;;13.27;33.79;98244.88;4928795;28;102304;-82
2022/04/04 09:40:19;;;;;;;;;4.00;3.00;;;;;13.28;34.25;98240.28;4929712;28;102216;-82
2022/04/04 09:42:50;;;;;;;;;4.00;3.00;;;;;13.28;34.03;98238.38;4921916;28;102960;-83
2022/04/04 09:45:17;;;;;;;;;3.00;3.00;;;;;13.21;34.21;98229.50;4936359;28;102647;-83
2022/04/04 09:48:05;;;;;;;;;3.00;3.00;;;;;13.26;33.80;98237.78;4927283;28;102566;-83
2022/04/04 09:50:45;;;;;;;;;3.00;3.00;;;;;13.21;33.55;98215.91;4914548;28;102527;-83
2022/04/04 09:53:23;;;;;;;;;5.25;3.25;;;;;13.26;33.73;98226.94;4932839;28;104534;-83
2022/04/04 09:56:00;;;;;;;;;3.75;3.75;;;;;13.27;33.99;98212.31;4904046;28;102537;-83
2022/04/04 09:58:37;;;;;;;;;6.25;3.00;;;;;13.26;34.53;98215.22;4902108;28;102670;-83
2022/04/04 10:01:05;;;;;;;;;3.00;2.50;;;;;13.25;33.94;98200.81;4940114;28;102213;-83
2022/04/04 10:03:32;;;;;;;;;3.00;3.00;;;;;13.26;33.91;98204.38;4936071;28;103792;-83
2022/04/04 10:06:05;;;;;;;;;2.75;2.75;;;;;13.22;34.10;98204.00;4916164;28;102573;-83
2022/04/04 10:08:32;;;;;;;;;2.00;2.00;;;;;13.23;34.08;98194.81;4898597;28;102071;-82
2022/04/04 10:10:59;;;;;;;;;2.00;2.00;;;;;13.27;34.28;98196.00;4911680;28;102484;-82
2022/04/04 10:13:27;;;;;;;;;2.75;2.00;;;;;13.27;34.26;98196.00;4894877;28;102933;-83
2022/04/04 10:15:54;;;;;;;;;1.75;1.75;;;;;13.27;33.54;98185.16;4911364;28;102173;-83
2022/04/04 10:18:24;;;;;;;;;3.00;3.00;;;;;13.26;33.61;98183.47;4918904;28;102826;-83
2022/04/04 10:20:56;;;;;;;;;3.75;3.75;;;;;13.28;34.62;98175.91;4942673;28;102194;-83
2022/04/04 10:23:24;;;;;;;;;2.00;2.00;;;;;13.27;33.88;98168.84;4940263;28;104430;-83
2022/04/04 10:25:52;;;;;;;;;3.00;3.00;;;;;13.27;34.20;98159.88;4912427;28;102551;-83
2022/04/04 10:28:27;;;;;;;;;2.50;2.00;;;;;13.27;34.42;98155.28;4902172;28;102663;-82
2022/04/04 10:30:57;;;;;;;;;2.25;2.00;;;;;13.32;33.70;98160.84;4896784;28;102346;-82
2022/04/04 10:33:30;;;;;;;;;2.25;2.25;;;;;13.31;33.65;98159.19;4934835;28;105082;-83
2022/04/04 10:36:02;;;;;;;;;4.50;2.00;;;;;13.35;34.35;98154.13;4941764;28;102752;-83
2022/04/04 10:38:32;;;;;;;;;3.25;3.00;;;;;13.34;33.87;98147.88;4943608;28;102356;-83
2022/04/04 10:41:05;;;;;;;;;2.00;2.00;;;;;13.34;33.99;98131.56;4911891;28;102896;-83
2022/04/04 10:43:35;;;;;;;;;3.00;2.00;;;;;13.34;33.44;98137.00;4928303;28;103442;-83
2022/04/04 10:46:05;;;;;;;;;2.00;2.00;;;;;13.38;33.94;98132.75;4918884;28;102524;-83
2022/04/04 10:48:33;;;;;;;;;2.50;2.00;;;;;13.39;34.16;98125.44;4912628;28;102969;-83
2022/04/04 10:51:11;;;;;;;;;3.50;2.00;;;;;13.42;34.07;98133.13;4939601;28;102509;-83
2022/04/04 10:53:49;;;;;;;;;3.00;2.00;;;;;13.38;34.28;98132.75;4939654;28;104004;-82
2022/04/04 10:56:39;;;;;;;;;1.50;1.50;;;;;13.42;33.43;98126.91;4906941;28;102908;-82
2022/04/04 10:59:16;;;;;;;;;3.75;2.00;;;;;13.42;34.41;98119.53;4930868;28;102664;-83
2022/04/04 11:01:45;;;;;;;;;3.25;3.25;;;;;13.44;33.97;98113.91;4940123;28;102884;-83
2022/04/04 11:04:28;;;;;;;;;3.00;2.00;;;;;13.46;34.25;98114.50;4941322;28;103095;-83
2022/04/04 11:10:06;;;;;;;;;2.75;2.75;;;;;13.45;33.90;98105.53;4932165;28;102094;-82
2022/04/04 11:13:05;;;;;;;;;2.00;2.00;;;;;13.47;33.85;98100.69;4939176;28;102352;-82
2022/04/04 11:15:55;;;;;;;;;3.00;2.00;;;;;13.48;33.46;98104.22;4928073;28;104561;-83
2022/04/04 11:18:24;;;;;;;;;3.00;2.00;;;;;13.47;33.58;98099.84;4936826;28;102126;-83
2022/04/04 11:20:59;;;;;;;;;2.00;2.00;;;;;13.48;34.03;98088.75;4926974;28;102402;-83
2022/04/04 11:23:27;;;;;;;;;2.75;2.75;;;;;13.46;33.62;98090.91;4945769;28;102417;-83
2022/04/04 11:25:57;;;;;;;;;2.75;2.50;;;;;13.47;34.04;98088.97;4913141;28;104127;-83
2022/04/04 11:28:31;;;;;;;;;2.25;1.75;;;;;13.43;33.56;98095.94;4937394;28;102481;-83
2022/04/04 11:31:08;;;;;;;;;5.00;3.00;;;;;13.43;33.54;98074.22;4908500;28;102434;-83
2022/04/04 11:33:48;;;;;;;;;1.75;1.50;;;;;13.42;33.46;98061.72;4938657;28;102410;-83
2022/04/04 11:36:27;;;;;;;;;3.00;1.50;;;;;13.48;33.86;98074.34;4932439;28;104460;-83